createdAt,value
2019-04-24T00:00:12.965Z,17.20
2019-04-24T00:02:13.166Z,14.80
2019-04-24T00:05:15.804Z,13.40
2019-04-24T00:07:00.733Z,24.90
2019-04-24T00:08:06.397Z,13.10
2019-04-24T00:08:56.716Z,13.40
2019-04-24T00:10:02.920Z,18.70
2019-04-24T00:11:21.046Z,16.70
2019-04-24T00:13:03.007Z,12.90
2019-04-24T00:14:14.699Z,10.90
2019-04-24T00:15:53.043Z,15.90
2019-04-24T00:17:01.322Z,14.70
2019-04-24T00:20:09.760Z,11.20
2019-04-24T00:21:07.041Z,11.80
2019-04-24T00:22:06.944Z,10.90
2019-04-24T00:23:06.224Z,12.80
2019-04-24T00:25:03.830Z,15.40
2019-04-24T00:25:53.338Z,15.90
2019-04-24T00:27:00.226Z,20.80
2019-04-24T00:28:07.084Z,13.90
2019-04-24T00:29:02.425Z,15.40
2019-04-24T00:29:55.756Z,20.40
2019-04-24T00:31:25.317Z,13.90
2019-04-24T00:31:55.296Z,16.60
2019-04-24T00:33:11.000Z,15.70
2019-04-24T00:35:02.132Z,15.30
2019-04-24T00:36:10.477Z,14.90
2019-04-24T00:36:58.434Z,14.30
2019-04-24T00:39:47.859Z,16.50
2019-04-24T00:41:11.521Z,17.40
2019-04-24T00:42:01.958Z,20.30
2019-04-24T00:43:11.061Z,16.40
2019-04-24T00:44:02.085Z,14.60
2019-04-24T00:44:57.098Z,16.00
2019-04-24T00:46:59.260Z,14.70
2019-04-24T00:49:51.762Z,16.10
2019-04-24T00:51:06.562Z,15.10
2019-04-24T00:51:52.086Z,13.20
2019-04-24T00:53:43.078Z,25.00
2019-04-24T00:54:57.086Z,13.90
2019-04-24T00:56:05.417Z,12.50
2019-04-24T00:57:55.921Z,14.70
2019-04-24T00:59:13.311Z,12.70
2019-04-24T00:59:48.688Z,12.70
2019-04-24T01:01:06.043Z,14.90
2019-04-24T01:02:10.253Z,14.30
2019-04-24T01:03:03.895Z,12.90
2019-04-24T01:07:12.269Z,15.00
2019-04-24T01:07:59.863Z,12.00
2019-04-24T01:08:54.412Z,20.40
2019-04-24T01:10:54.016Z,14.20
2019-04-24T01:12:04.555Z,14.40
2019-04-24T01:13:02.448Z,17.50
2019-04-24T01:14:04.261Z,13.70
2019-04-24T01:15:09.029Z,20.60
2019-04-24T01:16:13.479Z,15.10
2019-04-24T01:17:06.515Z,13.70
2019-04-24T01:18:06.506Z,14.50
2019-04-24T01:19:10.185Z,16.20
2019-04-24T01:20:15.205Z,12.40
2019-04-24T01:21:02.710Z,14.40
2019-04-24T01:23:03.119Z,18.30
2019-04-24T01:23:52.743Z,20.80
2019-04-24T01:25:16.015Z,15.70
2019-04-24T01:29:07.615Z,18.60
2019-04-24T01:30:15.369Z,20.70
2019-04-24T01:32:01.158Z,17.30
2019-04-24T01:33:09.029Z,16.90
2019-04-24T01:33:57.172Z,22.40
2019-04-24T01:34:55.171Z,20.30
2019-04-24T01:36:17.962Z,18.50
2019-04-24T01:37:17.931Z,15.10
2019-04-24T01:41:00.599Z,17.60
2019-04-24T01:42:11.376Z,16.40
2019-04-24T01:43:05.680Z,15.80
2019-04-24T01:43:59.314Z,17.70
2019-04-24T01:46:01.640Z,20.60
2019-04-24T01:47:12.428Z,13.30
2019-04-24T01:48:17.768Z,17.50
2019-04-24T01:49:05.325Z,18.00
2019-04-24T01:51:16.758Z,22.90
2019-04-24T01:52:54.327Z,18.90
2019-04-24T01:53:56.993Z,19.10
2019-04-24T01:55:56.477Z,19.20
2019-04-24T01:57:17.760Z,14.20
2019-04-24T01:57:59.305Z,24.80
2019-04-24T01:59:01.488Z,21.30
2019-04-24T02:01:05.242Z,12.60
2019-04-24T02:02:53.726Z,18.10
2019-04-24T02:05:00.470Z,19.70
2019-04-24T02:06:00.853Z,17.70
2019-04-24T02:07:01.766Z,18.60
2019-04-24T02:08:05.168Z,14.70
2019-04-24T02:09:21.224Z,16.30
2019-04-24T02:10:11.998Z,25.30
2019-04-24T02:11:04.042Z,13.50
2019-04-24T02:11:56.348Z,15.30
2019-04-24T02:14:01.846Z,15.10
2019-04-24T02:15:00.029Z,17.60
2019-04-24T02:16:02.234Z,18.90
2019-04-24T02:17:05.473Z,18.20
2019-04-24T02:17:58.444Z,16.60
2019-04-24T02:18:51.222Z,12.00
2019-04-24T02:20:09.247Z,15.30
2019-04-24T02:20:55.566Z,15.40
2019-04-24T02:21:55.917Z,13.30
2019-04-24T02:23:08.399Z,12.80
2019-04-24T02:24:01.516Z,12.60
2019-04-24T02:25:59.795Z,15.30
2019-04-24T02:26:53.861Z,14.30
2019-04-24T02:29:07.031Z,13.40
2019-04-24T02:29:49.640Z,13.00
2019-04-24T02:32:18.570Z,14.60
2019-04-24T02:34:05.529Z,11.90
2019-04-24T02:35:21.538Z,16.60
2019-04-24T02:38:17.455Z,14.40
2019-04-24T02:39:21.023Z,18.20
2019-04-24T02:42:12.407Z,19.40
2019-04-24T02:44:37.740Z,15.10
2019-04-24T02:46:03.508Z,13.50
2019-04-24T02:49:23.034Z,13.20
2019-04-24T02:51:15.610Z,18.40
2019-04-24T02:52:05.131Z,16.20
2019-04-24T02:53:11.694Z,13.30
2019-04-24T02:54:41.068Z,14.50
2019-04-24T02:56:12.602Z,14.80
2019-04-24T02:57:09.418Z,13.10
2019-04-24T02:58:05.020Z,12.60
2019-04-24T02:59:07.686Z,13.90
2019-04-24T03:00:24.025Z,16.90
2019-04-24T03:01:07.715Z,13.70
2019-04-24T03:03:17.462Z,15.70
2019-04-24T03:04:55.359Z,13.60
2019-04-24T03:06:13.819Z,15.40
2019-04-24T03:07:22.423Z,13.20
2019-04-24T03:10:28.280Z,16.70
2019-04-24T03:11:09.258Z,18.20
2019-04-24T03:12:44.473Z,17.40
2019-04-24T03:14:11.266Z,17.50
2019-04-24T03:15:22.534Z,18.20
2019-04-24T03:16:09.668Z,17.80
2019-04-24T03:22:13.398Z,19.50
2019-04-24T03:24:15.122Z,17.70
2019-04-24T03:29:23.176Z,20.70
2019-04-24T03:30:01.428Z,14.50
2019-04-24T03:32:41.417Z,22.50
2019-04-24T03:36:29.902Z,21.00
2019-04-24T03:38:42.891Z,19.50
2019-04-24T03:40:52.069Z,20.80
2019-04-24T03:46:01.162Z,23.60
2019-04-24T03:46:54.463Z,23.30
2019-04-24T03:50:14.147Z,18.10
2019-04-24T03:52:18.370Z,18.20
2019-04-24T03:53:23.790Z,21.10
2019-04-24T03:55:12.305Z,17.50
2019-04-24T03:56:06.260Z,19.50
2019-04-24T04:00:28.639Z,15.90
2019-04-24T04:04:01.968Z,18.50
2019-04-24T04:05:12.037Z,23.30
2019-04-24T04:06:28.711Z,18.30
2019-04-24T04:07:04.904Z,17.80
2019-04-24T04:08:38.081Z,24.20
2019-04-24T04:09:59.260Z,21.10
2019-04-24T04:10:59.592Z,19.10
2019-04-24T04:13:17.258Z,21.10
2019-04-24T04:15:08.545Z,19.80
2019-04-24T04:16:05.551Z,18.40
2019-04-24T04:18:25.041Z,17.70
2019-04-24T04:19:04.144Z,16.60
2019-04-24T04:20:00.200Z,18.00
2019-04-24T04:21:02.377Z,18.20
2019-04-24T04:22:07.111Z,21.30
2019-04-24T04:25:02.491Z,21.10
2019-04-24T04:27:06.491Z,19.90
2019-04-24T04:28:02.345Z,19.20
2019-04-24T04:30:09.150Z,16.00
2019-04-24T04:33:14.867Z,20.00
2019-04-24T04:34:22.828Z,18.60
2019-04-24T04:35:07.968Z,18.90
2019-04-24T04:38:14.908Z,18.70
2019-04-24T04:40:09.368Z,18.10
2019-04-24T04:41:20.679Z,17.80
2019-04-24T04:45:06.549Z,16.10
2019-04-24T04:47:12.118Z,22.10
2019-04-24T04:47:51.425Z,17.20
2019-04-24T04:49:08.138Z,15.20
2019-04-24T04:50:21.492Z,21.60
2019-04-24T04:51:12.826Z,19.60
2019-04-24T04:52:10.247Z,20.10
2019-04-24T04:56:25.675Z,22.10
2019-04-24T04:57:01.800Z,15.00
2019-04-24T04:58:07.675Z,17.30
2019-04-24T04:59:06.319Z,20.30
2019-04-24T05:00:03.037Z,18.10
2019-04-24T05:01:12.349Z,22.60
2019-04-24T05:03:20.977Z,15.50
2019-04-24T05:04:01.670Z,14.80
2019-04-24T05:05:04.926Z,16.40
2019-04-24T05:06:22.376Z,15.90
2019-04-24T05:07:21.582Z,18.80
2019-04-24T05:08:15.437Z,18.60
2019-04-24T05:09:33.026Z,21.20
2019-04-24T05:10:12.642Z,20.30
2019-04-24T05:15:06.784Z,21.00
2019-04-24T05:16:44.819Z,19.80
2019-04-24T05:19:14.505Z,20.60
2019-04-24T05:19:49.327Z,15.90
2019-04-24T05:21:05.946Z,20.60
2019-04-24T05:22:59.133Z,19.40
2019-04-24T05:25:01.631Z,18.60
2019-04-24T05:26:20.928Z,14.20
2019-04-24T05:27:51.439Z,21.70
2019-04-24T05:29:00.974Z,17.20
2019-04-24T05:29:57.525Z,19.00
2019-04-24T05:30:47.273Z,17.50
2019-04-24T05:31:53.018Z,17.10
2019-04-24T05:34:10.623Z,17.70
2019-04-24T05:35:15.319Z,17.80
2019-04-24T05:36:58.179Z,20.40
2019-04-24T05:38:11.969Z,21.10
2019-04-24T05:39:20.547Z,14.70
2019-04-24T05:42:00.309Z,17.90
2019-04-24T05:43:08.251Z,14.70
2019-04-24T05:43:58.802Z,14.70
2019-04-24T05:44:57.453Z,14.20
2019-04-24T05:46:08.276Z,15.70
2019-04-24T05:46:49.874Z,16.70
2019-04-24T05:47:56.370Z,19.10
2019-04-24T05:48:56.531Z,13.70
2019-04-24T05:51:54.718Z,16.80
2019-04-24T05:53:12.902Z,15.00
2019-04-24T05:53:58.647Z,17.60
2019-04-24T05:54:51.284Z,12.70
2019-04-24T05:56:57.849Z,11.90
2019-04-24T05:58:08.368Z,12.70
2019-04-24T05:59:07.906Z,19.70
2019-04-24T06:00:04.465Z,16.20
2019-04-24T06:01:00.498Z,12.90
2019-04-24T06:02:56.934Z,13.40
2019-04-24T06:06:06.122Z,19.10
2019-04-24T06:08:59.199Z,15.70
2019-04-24T06:10:07.708Z,16.50
2019-04-24T06:11:04.078Z,14.10
2019-04-24T06:12:00.870Z,14.60
2019-04-24T06:12:59.085Z,12.60
2019-04-24T06:17:01.608Z,14.70
2019-04-24T06:18:23.602Z,15.80
2019-04-24T06:21:11.393Z,13.20
2019-04-24T06:21:57.400Z,13.80
2019-04-24T06:23:02.510Z,23.70
2019-04-24T06:25:23.929Z,19.10
2019-04-24T06:27:58.595Z,11.20
2019-04-24T06:31:02.808Z,14.40
2019-04-24T06:32:16.164Z,19.90
2019-04-24T06:32:49.525Z,12.70
2019-04-24T06:34:01.866Z,13.70
2019-04-24T06:37:55.783Z,17.70
2019-04-24T06:39:06.862Z,15.40
2019-04-24T06:40:21.014Z,14.90
2019-04-24T06:43:55.704Z,13.60
2019-04-24T06:45:13.068Z,15.90
2019-04-24T06:45:51.234Z,11.50
2019-04-24T06:47:20.934Z,17.10
2019-04-24T06:50:11.045Z,19.70
2019-04-24T06:51:01.734Z,13.70
2019-04-24T06:52:01.596Z,12.40
2019-04-24T06:53:51.291Z,23.40
2019-04-24T06:55:06.211Z,16.40
2019-04-24T06:57:15.195Z,14.90
2019-04-24T06:57:56.684Z,16.20
2019-04-24T06:59:07.238Z,13.60
2019-04-24T06:59:54.093Z,11.90
2019-04-24T07:01:57.630Z,18.00
2019-04-24T07:06:22.510Z,12.00
2019-04-24T07:07:44.909Z,12.80
2019-04-24T07:09:18.223Z,14.10
2019-04-24T07:11:04.435Z,15.40
2019-04-24T07:11:58.141Z,13.20
2019-04-24T07:14:51.790Z,14.00
2019-04-24T07:15:56.064Z,14.90
2019-04-24T07:18:12.020Z,14.20
2019-04-24T07:18:48.102Z,11.90
2019-04-24T07:19:51.164Z,17.60
2019-04-24T07:21:57.334Z,12.50
2019-04-24T07:22:51.638Z,14.50
2019-04-24T07:28:01.407Z,14.90
2019-04-24T07:29:16.309Z,13.20
2019-04-24T07:31:22.749Z,12.80
2019-04-24T07:31:56.105Z,12.50
2019-04-24T07:34:18.801Z,11.90
2019-04-24T07:35:01.705Z,15.60
2019-04-24T07:35:56.963Z,10.30
2019-04-24T07:36:52.827Z,11.20
2019-04-24T07:39:10.713Z,8.70
2019-04-24T07:41:06.324Z,13.50
2019-04-24T07:43:07.567Z,11.40
2019-04-24T07:44:08.736Z,9.70
2019-04-24T07:45:56.426Z,10.60
2019-04-24T07:46:54.090Z,10.90
2019-04-24T07:47:57.724Z,11.50
2019-04-24T07:49:09.005Z,9.80
2019-04-24T07:49:58.394Z,12.20
2019-04-24T07:52:01.947Z,20.60
2019-04-24T07:54:05.662Z,9.00
2019-04-24T07:56:09.059Z,12.50
2019-04-24T07:57:49.416Z,8.80
2019-04-24T08:00:57.356Z,10.80
2019-04-24T08:02:59.558Z,11.90
2019-04-24T08:04:02.029Z,8.60
2019-04-24T08:06:00.071Z,10.30
2019-04-24T08:07:09.428Z,9.10
2019-04-24T08:08:04.761Z,9.00
2019-04-24T08:10:49.666Z,11.80
2019-04-24T08:12:00.640Z,7.20
2019-04-24T08:12:49.537Z,9.20
2019-04-24T08:13:54.657Z,8.20
2019-04-24T08:15:57.892Z,13.40
2019-04-24T08:17:00.671Z,7.00
2019-04-24T08:18:46.541Z,7.90
2019-04-24T08:20:55.869Z,9.50
2019-04-24T08:22:00.911Z,11.70
2019-04-24T08:23:18.140Z,10.60
2019-04-24T08:23:53.461Z,12.60
2019-04-24T08:25:10.635Z,11.00
2019-04-24T08:27:04.338Z,7.50
2019-04-24T08:30:00.501Z,7.20
2019-04-24T08:31:09.605Z,12.20
2019-04-24T08:32:57.311Z,8.90
2019-04-24T08:34:51.534Z,9.60
2019-04-24T08:36:04.334Z,9.50
2019-04-24T08:36:57.802Z,7.30
2019-04-24T08:39:58.544Z,21.20
2019-04-24T08:42:20.242Z,7.60
2019-04-24T08:43:12.194Z,8.40
2019-04-24T08:44:02.080Z,14.10
2019-04-24T08:45:53.322Z,10.70
2019-04-24T08:46:55.631Z,17.80
2019-04-24T08:51:15.757Z,12.10
2019-04-24T08:52:21.405Z,13.50
2019-04-24T08:55:59.966Z,5.90
2019-04-24T08:57:03.153Z,12.20
2019-04-24T08:58:06.505Z,9.70
2019-04-24T08:58:57.674Z,12.30
2019-04-24T09:00:04.752Z,6.80
2019-04-24T09:01:06.322Z,5.80
2019-04-24T09:02:08.414Z,6.20
2019-04-24T09:03:08.113Z,7.00
2019-04-24T09:03:58.613Z,9.10
2019-04-24T09:07:06.031Z,9.30
2019-04-24T09:08:57.995Z,6.40
2019-04-24T09:10:08.311Z,9.40
2019-04-24T09:15:57.828Z,11.90
2019-04-24T09:16:53.511Z,11.80
2019-04-24T09:17:42.052Z,9.20
2019-04-24T09:20:47.498Z,5.90
2019-04-24T09:21:38.305Z,8.60
2019-04-24T09:22:55.123Z,12.40
2019-04-24T09:24:11.082Z,10.60
2019-04-24T09:25:57.600Z,8.30
2019-04-24T09:27:48.745Z,9.10
2019-04-24T09:31:41.598Z,10.60
2019-04-24T09:33:42.665Z,12.90
2019-04-24T09:34:35.968Z,12.70
2019-04-24T09:36:03.767Z,8.30
2019-04-24T09:38:39.120Z,11.80
2019-04-24T09:41:55.149Z,9.00
2019-04-24T09:42:58.138Z,10.90
2019-04-24T09:44:45.664Z,7.40
2019-04-24T09:46:34.862Z,7.20
2019-04-24T09:47:45.259Z,7.00
2019-04-24T09:48:50.681Z,7.90
2019-04-24T09:49:38.520Z,7.30
2019-04-24T09:52:57.529Z,10.80
2019-04-24T09:53:50.986Z,13.80
2019-04-24T09:55:36.333Z,7.80
2019-04-24T09:56:37.736Z,10.70
2019-04-24T10:00:30.946Z,9.30
2019-04-24T10:02:30.960Z,7.20
2019-04-24T10:03:33.778Z,6.60
2019-04-24T10:04:38.193Z,9.80
2019-04-24T10:05:38.424Z,7.60
2019-04-24T10:06:59.476Z,11.60
2019-04-24T10:07:35.843Z,4.00
2019-04-24T10:08:49.893Z,6.40
2019-04-24T10:09:34.954Z,8.10
2019-04-24T10:10:35.568Z,3.60
2019-04-24T10:12:42.756Z,7.30
2019-04-24T10:13:35.274Z,3.90
2019-04-24T10:14:36.681Z,7.30
2019-04-24T10:15:40.768Z,7.50
2019-04-24T10:16:46.056Z,9.20
2019-04-24T10:17:37.467Z,10.30
2019-04-24T10:18:46.151Z,5.10
2019-04-24T10:20:25.436Z,7.70
2019-04-24T10:21:31.562Z,3.30
2019-04-24T10:22:38.961Z,5.70
2019-04-24T10:23:34.578Z,15.00
2019-04-24T10:24:37.173Z,9.10
2019-04-24T10:25:29.428Z,7.50
2019-04-24T10:27:42.190Z,10.80
2019-04-24T10:28:52.846Z,4.50
2019-04-24T10:29:37.689Z,10.00
2019-04-24T10:30:43.431Z,6.10
2019-04-24T10:31:47.961Z,4.80
2019-04-24T10:33:41.587Z,4.40
2019-04-24T10:34:24.114Z,6.30
2019-04-24T10:35:46.176Z,3.40
2019-04-24T10:36:40.925Z,6.00
2019-04-24T10:38:03.322Z,5.60
2019-04-24T10:40:42.978Z,3.10
2019-04-24T10:41:38.520Z,5.10
2019-04-24T10:42:37.034Z,11.40
2019-04-24T10:43:30.816Z,4.80
2019-04-24T10:44:40.703Z,6.40
2019-04-24T10:45:31.563Z,9.90
2019-04-24T10:46:41.526Z,11.50
2019-04-24T10:47:55.652Z,5.10
2019-04-24T10:48:23.920Z,4.40
2019-04-24T10:49:42.652Z,4.20
2019-04-24T10:50:41.641Z,5.70
2019-04-24T10:51:55.638Z,5.00
2019-04-24T10:52:28.006Z,3.60
2019-04-24T10:54:38.338Z,10.50
2019-04-24T10:56:43.446Z,4.40
2019-04-24T10:57:42.262Z,7.50
2019-04-24T10:58:36.001Z,4.90
2019-04-24T10:59:40.133Z,4.00
2019-04-24T11:00:40.834Z,5.10
2019-04-24T11:02:02.693Z,10.40
2019-04-24T11:02:37.033Z,3.80
2019-04-24T11:03:49.733Z,2.10
2019-04-24T11:04:52.931Z,5.20
2019-04-24T11:05:40.883Z,7.70
2019-04-24T11:06:45.521Z,6.70
2019-04-24T11:08:42.893Z,4.60
2019-04-24T11:09:53.052Z,12.50
2019-04-24T11:12:51.303Z,8.80
2019-04-24T11:13:39.140Z,2.90
2019-04-24T11:14:31.499Z,3.20
2019-04-24T11:15:42.510Z,5.90
2019-04-24T11:17:03.878Z,3.90
2019-04-24T11:18:44.425Z,4.80
2019-04-24T11:19:36.190Z,5.00
2019-04-24T11:22:32.603Z,8.60
2019-04-24T11:23:37.418Z,4.50
2019-04-24T11:25:45.023Z,7.30
2019-04-24T11:26:58.312Z,11.20
2019-04-24T11:27:40.874Z,5.80
2019-04-24T11:28:36.032Z,3.20
2019-04-24T11:29:44.669Z,11.50
2019-04-24T11:30:37.091Z,7.20
2019-04-24T11:31:34.033Z,5.70
2019-04-24T11:32:44.793Z,4.50
2019-04-24T11:35:02.994Z,5.20
2019-04-24T11:35:26.487Z,2.80
2019-04-24T11:36:34.350Z,7.00
2019-04-24T11:37:43.730Z,5.40
2019-04-24T11:38:42.651Z,2.60
2019-04-24T11:40:12.703Z,4.10
2019-04-24T11:42:40.307Z,7.80
2019-04-24T11:43:47.734Z,9.00
2019-04-24T11:44:34.505Z,3.00
2019-04-24T11:45:37.592Z,9.30
2019-04-24T11:47:49.898Z,4.40
2019-04-24T11:48:42.258Z,7.00
2019-04-24T11:49:42.654Z,4.30
2019-04-24T11:51:04.688Z,4.50
2019-04-24T11:52:54.237Z,5.30
2019-04-24T11:53:24.510Z,6.70
2019-04-24T11:54:48.761Z,8.30
2019-04-24T11:56:39.881Z,7.40
2019-04-24T11:58:37.484Z,7.50
2019-04-24T11:59:14.315Z,4.90
2019-04-24T12:00:18.574Z,7.20
2019-04-24T12:01:42.412Z,2.60
2019-04-24T12:02:26.938Z,3.60
2019-04-24T12:03:28.592Z,3.70
2019-04-24T12:04:33.578Z,5.60
2019-04-24T12:06:34.107Z,4.10
2019-04-24T12:07:28.384Z,2.40
2019-04-24T12:08:37.763Z,2.90
2019-04-24T12:09:40.263Z,4.60
2019-04-24T12:10:44.955Z,7.60
2019-04-24T12:12:32.452Z,9.90
2019-04-24T12:13:47.868Z,12.70
2019-04-24T12:14:33.625Z,2.40
2019-04-24T12:15:51.055Z,2.90
2019-04-24T12:16:35.596Z,3.90
2019-04-24T12:17:36.935Z,3.80
2019-04-24T12:19:40.801Z,6.70
2019-04-24T12:20:42.158Z,5.70
2019-04-24T12:21:39.764Z,3.00
2019-04-24T12:22:30.758Z,5.90
2019-04-24T12:23:45.007Z,7.70
2019-04-24T12:24:29.418Z,6.50
2019-04-24T12:26:00.299Z,6.50
2019-04-24T12:27:38.652Z,3.50
2019-04-24T12:28:41.084Z,2.80
2019-04-24T12:29:27.460Z,4.30
2019-04-24T12:30:28.787Z,6.60
2019-04-24T12:31:29.751Z,6.90
2019-04-24T12:32:31.219Z,3.50
2019-04-24T12:33:38.733Z,5.20
2019-04-24T12:34:39.133Z,8.30
2019-04-24T12:35:27.934Z,9.40
2019-04-24T12:36:36.945Z,5.10
2019-04-24T12:37:31.865Z,5.10
2019-04-24T12:38:55.314Z,7.10
2019-04-24T12:39:25.441Z,5.90
2019-04-24T12:40:38.043Z,3.40
2019-04-24T12:42:35.788Z,4.40
2019-04-24T12:43:38.508Z,7.50
2019-04-24T12:46:33.307Z,3.10
2019-04-24T12:48:41.407Z,7.40
2019-04-24T12:50:34.735Z,6.60
2019-04-24T12:51:26.326Z,4.00
2019-04-24T12:53:37.131Z,6.00
2019-04-24T12:54:25.116Z,4.80
2019-04-24T12:55:41.750Z,5.20
2019-04-24T12:56:43.494Z,6.40
2019-04-24T13:00:31.790Z,2.30
2019-04-24T13:01:35.560Z,6.10
2019-04-24T13:02:33.222Z,7.50
2019-04-24T13:03:37.894Z,5.60
2019-04-24T13:04:39.032Z,2.30
2019-04-24T13:05:35.218Z,3.70
2019-04-24T13:06:12.790Z,4.20
2019-04-24T13:07:31.834Z,3.10
2019-04-24T13:08:50.329Z,3.10
2019-04-24T13:09:38.551Z,5.90
2019-04-24T13:10:41.455Z,8.20
2019-04-24T13:11:41.910Z,3.60
2019-04-24T13:12:49.290Z,2.70
2019-04-24T13:13:45.257Z,5.20
2019-04-24T13:14:47.808Z,5.50
2019-04-24T13:15:36.974Z,4.90
2019-04-24T13:16:46.962Z,2.70
2019-04-24T13:17:42.201Z,3.00
2019-04-24T13:18:59.555Z,4.40
2019-04-24T13:20:10.157Z,5.10
2019-04-24T13:21:12.336Z,4.00
2019-04-24T13:22:12.619Z,3.70
2019-04-24T13:23:20.533Z,6.40
2019-04-24T13:24:22.076Z,2.90
2019-04-24T13:25:39.127Z,4.50
2019-04-24T13:26:30.438Z,4.60
2019-04-24T13:28:09.733Z,11.20
2019-04-24T13:28:40.102Z,6.10
2019-04-24T13:29:46.040Z,2.50
2019-04-24T13:30:35.582Z,2.20
2019-04-24T13:31:32.729Z,4.00
2019-04-24T13:32:37.403Z,2.00
2019-04-24T13:33:35.947Z,4.00
2019-04-24T13:34:35.325Z,2.30
2019-04-24T13:35:34.138Z,2.30
2019-04-24T13:36:57.674Z,4.80
2019-04-24T13:37:45.515Z,2.90
2019-04-24T13:38:44.474Z,8.10
2019-04-24T13:39:41.407Z,4.20
2019-04-24T13:40:42.701Z,5.20
2019-04-24T13:41:36.753Z,2.20
2019-04-24T13:42:36.845Z,3.40
2019-04-24T13:43:55.470Z,3.30
2019-04-24T13:44:42.339Z,3.90
2019-04-24T13:45:39.621Z,6.20
2019-04-24T13:46:27.325Z,3.80
2019-04-24T13:47:39.280Z,2.80
2019-04-24T13:49:39.355Z,8.30
2019-04-24T13:50:34.174Z,4.30
2019-04-24T13:51:31.722Z,4.70
2019-04-24T13:53:11.940Z,12.40
2019-04-24T13:54:31.810Z,17.40
2019-04-24T13:55:41.627Z,3.10
2019-04-24T13:56:30.134Z,4.20
2019-04-24T13:57:33.899Z,2.60
2019-04-24T13:58:37.349Z,3.90
2019-04-24T13:59:35.634Z,5.30
2019-04-24T14:01:45.867Z,8.50
2019-04-24T14:03:01.170Z,3.40
2019-04-24T14:04:26.708Z,3.60
2019-04-24T14:05:45.835Z,5.30
2019-04-24T14:06:48.691Z,3.20
2019-04-24T14:07:54.357Z,3.60
2019-04-24T14:08:56.099Z,6.30
2019-04-24T14:10:08.705Z,4.30
2019-04-24T14:13:48.328Z,2.80
2019-04-24T14:14:44.667Z,7.20
2019-04-24T14:15:50.560Z,10.50
2019-04-24T14:16:40.621Z,3.10
2019-04-24T14:17:37.909Z,3.70
2019-04-24T14:18:35.610Z,4.30
2019-04-24T14:19:41.998Z,2.70
2019-04-24T14:21:37.131Z,4.90
2019-04-24T14:22:32.942Z,6.30
2019-04-24T14:23:42.585Z,5.10
2019-04-24T14:25:03.993Z,5.30
2019-04-24T14:26:43.854Z,3.20
2019-04-24T14:27:35.903Z,6.30
2019-04-24T14:28:37.421Z,2.90
2019-04-24T14:29:36.050Z,4.40
2019-04-24T14:30:45.426Z,6.80
2019-04-24T14:31:33.626Z,2.70
2019-04-24T14:33:55.763Z,2.00
2019-04-24T14:35:50.599Z,8.30
2019-04-24T14:37:33.175Z,2.30
2019-04-24T14:39:00.357Z,3.70
2019-04-24T14:39:53.949Z,9.20
2019-04-24T14:41:40.488Z,7.40
2019-04-24T14:42:33.806Z,4.40
2019-04-24T14:43:59.134Z,6.70
2019-04-24T14:44:45.646Z,3.60
2019-04-24T14:45:50.046Z,6.30
2019-04-24T14:46:57.556Z,4.90
2019-04-24T14:47:35.591Z,5.70
2019-04-24T14:48:38.430Z,2.50
2019-04-24T14:49:52.006Z,4.00
2019-04-24T14:51:33.035Z,4.10
2019-04-24T14:52:34.832Z,6.50
2019-04-24T14:53:38.372Z,3.70
2019-04-24T14:54:58.494Z,4.00
2019-04-24T14:56:39.187Z,2.80
2019-04-24T14:57:39.106Z,5.10
2019-04-24T14:58:34.969Z,6.20
2019-04-24T14:59:43.375Z,4.70
2019-04-24T15:00:43.483Z,3.60
2019-04-24T15:01:36.766Z,4.30
2019-04-24T15:03:32.778Z,4.00
2019-04-24T15:04:53.323Z,2.30
2019-04-24T15:05:36.807Z,9.30
2019-04-24T15:06:46.119Z,9.10
2019-04-24T15:07:38.819Z,7.30
2019-04-24T15:08:48.004Z,3.20
2019-04-24T15:09:52.673Z,4.60
2019-04-24T15:11:47.717Z,5.60
2019-04-24T15:12:34.149Z,4.90
2019-04-24T15:14:04.291Z,1.90
2019-04-24T15:16:11.224Z,3.40
2019-04-24T15:16:43.198Z,2.90
2019-04-24T15:17:37.956Z,3.20
2019-04-24T15:18:52.093Z,5.40
2019-04-24T15:19:44.268Z,3.10
2019-04-24T15:20:52.144Z,2.90
2019-04-24T15:21:39.626Z,2.90
2019-04-24T15:22:45.103Z,5.50
2019-04-24T15:23:54.638Z,4.00
2019-04-24T15:25:51.401Z,5.30
2019-04-24T15:26:42.727Z,6.00
2019-04-24T15:27:35.758Z,5.10
2019-04-24T15:29:00.508Z,5.80
2019-04-24T15:29:35.141Z,6.40
2019-04-24T15:31:33.174Z,6.00
2019-04-24T15:32:31.942Z,2.50
2019-04-24T15:33:36.271Z,3.60
2019-04-24T15:34:44.942Z,2.70
2019-04-24T15:36:34.314Z,6.10
2019-04-24T15:37:47.474Z,4.40
2019-04-24T15:39:37.681Z,7.50
2019-04-24T15:40:47.238Z,4.50
2019-04-24T15:41:43.922Z,3.40
2019-04-24T15:44:44.253Z,5.50
2019-04-24T15:45:37.190Z,2.90
2019-04-24T15:46:44.705Z,5.90
2019-04-24T15:48:45.249Z,3.60
2019-04-24T15:49:38.408Z,5.30
2019-04-24T15:50:44.104Z,4.60
2019-04-24T15:51:28.948Z,8.10
2019-04-24T15:52:05.071Z,3.60
2019-04-24T15:53:05.070Z,6.10
2019-04-24T15:54:05.106Z,3.40
2019-04-24T15:55:05.197Z,3.10
2019-04-24T15:56:05.088Z,2.40
2019-04-24T15:57:05.095Z,3.20
2019-04-24T15:58:10.813Z,4.60
2019-04-24T15:59:23.983Z,5.60
2019-04-24T16:00:38.195Z,2.60
2019-04-24T16:01:37.363Z,4.70
2019-04-24T16:02:44.670Z,5.70
2019-04-24T16:03:46.707Z,6.90
2019-04-24T16:04:36.046Z,3.10
2019-04-24T16:05:05.484Z,5.60
2019-04-24T16:06:05.155Z,4.40
2019-04-24T16:07:05.162Z,2.20
2019-04-24T16:08:05.168Z,2.10
2019-04-24T16:09:05.177Z,3.90
2019-04-24T16:10:05.219Z,6.80
2019-04-24T16:11:05.787Z,5.80
2019-04-24T16:12:05.195Z,4.70
2019-04-24T16:13:05.814Z,6.20
2019-04-24T16:14:20.156Z,11.50
2019-04-24T16:15:40.556Z,3.10
2019-04-24T16:16:30.781Z,3.60
2019-04-24T16:17:51.993Z,2.10
2019-04-24T16:18:57.368Z,2.50
2019-04-24T16:20:33.261Z,5.30
2019-04-24T16:21:28.804Z,2.60
2019-04-24T16:22:35.974Z,5.10
2019-04-24T16:26:34.099Z,4.40
2019-04-24T16:27:48.941Z,11.50
2019-04-24T16:28:57.493Z,4.80
2019-04-24T16:29:50.226Z,8.20
2019-04-24T16:30:38.564Z,2.20
2019-04-24T16:32:09.199Z,7.60
2019-04-24T16:32:39.647Z,4.60
2019-04-24T16:34:34.140Z,7.10
2019-04-24T16:35:49.491Z,7.10
2019-04-24T16:37:31.565Z,10.30
2019-04-24T16:38:37.789Z,3.70
2019-04-24T16:39:22.740Z,5.70
2019-04-24T16:42:42.894Z,4.50
2019-04-24T16:43:42.295Z,3.20
2019-04-24T16:45:45.585Z,4.90
2019-04-24T16:48:08.865Z,4.20
2019-04-24T16:48:35.653Z,5.80
2019-04-24T16:49:44.039Z,5.90
2019-04-24T16:51:01.218Z,5.30
2019-04-24T16:51:57.210Z,9.20
2019-04-24T16:52:36.779Z,5.00
2019-04-24T16:55:37.095Z,3.90
2019-04-24T16:57:51.012Z,6.40
2019-04-24T16:59:22.600Z,8.10
2019-04-24T17:00:57.733Z,3.80
2019-04-24T17:02:30.521Z,4.30
2019-04-24T17:04:46.452Z,4.90
2019-04-24T17:08:39.608Z,6.40
2019-04-24T17:09:35.358Z,5.70
2019-04-24T17:14:35.773Z,4.60
2019-04-24T17:15:29.619Z,5.30
2019-04-24T17:16:40.119Z,5.60
2019-04-24T17:17:43.076Z,7.50
2019-04-24T17:18:45.078Z,4.20
2019-04-24T17:20:39.067Z,7.90
2019-04-24T17:22:38.055Z,6.60
2019-04-24T17:23:31.981Z,3.10
2019-04-24T17:24:43.460Z,8.30
2019-04-24T17:25:42.153Z,7.70
2019-04-24T17:26:25.686Z,8.60
2019-04-24T17:27:31.798Z,7.10
2019-04-24T17:28:33.196Z,14.20
2019-04-24T17:31:37.023Z,3.90
2019-04-24T17:33:31.000Z,5.80
2019-04-24T17:34:46.952Z,6.80
2019-04-24T17:35:38.910Z,5.10
2019-04-24T17:36:22.097Z,4.10
2019-04-24T17:37:05.690Z,8.00
2019-04-24T17:38:05.970Z,3.20
2019-04-24T17:39:05.701Z,8.70
2019-04-24T17:40:05.706Z,7.20
2019-04-24T17:41:06.786Z,7.90
2019-04-24T17:42:13.776Z,7.00
2019-04-24T17:43:31.440Z,6.80
2019-04-24T17:44:47.652Z,5.50
2019-04-24T17:46:53.652Z,11.90
2019-04-24T17:48:37.579Z,12.40
2019-04-24T17:49:43.074Z,7.60
2019-04-24T17:50:43.409Z,9.20
2019-04-24T17:51:43.676Z,8.20
2019-04-24T17:53:52.618Z,14.80
2019-04-24T17:54:26.500Z,13.10
2019-04-24T17:55:32.111Z,11.90
2019-04-24T17:56:46.616Z,16.30
2019-04-24T17:58:14.246Z,21.30
2019-04-24T17:59:06.096Z,14.00
2019-04-24T18:00:06.284Z,11.20
2019-04-24T18:01:06.086Z,9.00
2019-04-24T18:02:05.816Z,8.00
2019-04-24T18:03:10.840Z,4.10
2019-04-24T18:04:06.523Z,4.40
2019-04-24T18:05:06.503Z,6.40
2019-04-24T18:06:06.109Z,4.40
2019-04-24T18:07:06.115Z,4.80
2019-04-24T18:08:06.145Z,4.10
2019-04-24T18:09:06.208Z,12.30
2019-04-24T18:10:06.291Z,4.80
2019-04-24T18:11:05.853Z,3.70
2019-04-24T18:12:05.856Z,5.90
2019-04-24T18:13:06.621Z,7.30
2019-04-24T18:14:06.723Z,6.40
2019-04-24T18:15:06.621Z,11.50
2019-04-24T18:16:06.729Z,4.60
2019-04-24T18:17:06.696Z,5.50
2019-04-24T18:18:05.878Z,5.90
2019-04-24T18:19:06.683Z,5.70
2019-04-24T18:20:06.732Z,5.60
2019-04-24T18:21:05.883Z,8.60
2019-04-24T18:22:05.888Z,8.00
2019-04-24T18:23:05.891Z,4.40
2019-04-24T18:24:06.598Z,3.20